createdAt,value
2017-12-30T00:00:18.934Z,11.20
2017-12-30T00:02:46.452Z,8.83
2017-12-30T00:05:14.011Z,15.77
2017-12-30T00:07:41.537Z,13.53
2017-12-30T00:10:09.054Z,16.13
2017-12-30T00:12:36.617Z,12.67
2017-12-30T00:15:04.135Z,15.50
2017-12-30T00:17:32.448Z,10.80
2017-12-30T00:19:59.998Z,15.93
2017-12-30T00:22:28.350Z,18.93
2017-12-30T00:24:55.876Z,19.27
2017-12-30T00:27:23.436Z,13.30
2017-12-30T00:29:50.960Z,11.70
2017-12-30T00:32:18.683Z,13.83
2017-12-30T00:34:47.060Z,16.73
2017-12-30T00:37:14.587Z,14.13
2017-12-30T00:39:42.140Z,9.50
2017-12-30T00:42:09.693Z,11.20
2017-12-30T00:44:37.947Z,10.40
2017-12-30T00:47:05.470Z,16.17
2017-12-30T00:49:33.028Z,16.33
2017-12-30T00:52:01.312Z,16.00
2017-12-30T00:54:28.875Z,15.03
2017-12-30T00:56:57.163Z,15.40
2017-12-30T00:59:24.717Z,13.20
2017-12-30T01:01:52.236Z,13.17
2017-12-30T01:04:19.816Z,11.60
2017-12-30T01:06:47.333Z,12.73
2017-12-30T01:09:14.930Z,17.53
2017-12-30T01:11:42.441Z,12.73
2017-12-30T01:14:09.974Z,10.07
2017-12-30T01:16:37.527Z,20.43
2017-12-30T01:19:05.119Z,17.97
2017-12-30T01:21:32.664Z,16.50
2017-12-30T01:24:00.317Z,16.30
2017-12-30T01:26:27.863Z,20.93
2017-12-30T01:28:55.376Z,16.73
2017-12-30T01:31:23.395Z,12.90
2017-12-30T01:33:50.912Z,16.50
2017-12-30T01:36:18.494Z,10.37
2017-12-30T01:38:46.016Z,7.40
2017-12-30T01:41:14.287Z,12.87
2017-12-30T01:43:41.875Z,14.47
2017-12-30T01:46:09.399Z,11.90
2017-12-30T01:51:33.004Z,10.20
2017-12-30T01:54:00.567Z,9.40
2017-12-30T01:56:28.085Z,20.40
2017-12-30T01:58:55.651Z,15.90
2017-12-30T02:01:23.183Z,18.50
2017-12-30T02:03:50.730Z,17.33
2017-12-30T02:06:18.236Z,16.53
2017-12-30T02:08:46.554Z,27.37
2017-12-30T02:11:14.071Z,9.83
2017-12-30T02:13:42.389Z,15.10
2017-12-30T02:16:09.904Z,16.40
2017-12-30T02:18:37.471Z,19.23
2017-12-30T02:21:04.979Z,17.73
2017-12-30T02:23:32.509Z,20.10
2017-12-30T02:26:00.047Z,8.60
2017-12-30T02:28:27.574Z,6.93
2017-12-30T02:30:55.114Z,10.17
2017-12-30T02:33:22.633Z,7.40
2017-12-30T02:35:50.200Z,13.87
2017-12-30T02:38:17.710Z,9.20
2017-12-30T02:40:45.252Z,9.43
2017-12-30T02:43:13.531Z,16.20
2017-12-30T02:45:41.841Z,16.83
2017-12-30T02:48:09.392Z,15.93
2017-12-30T02:50:37.675Z,15.63
2017-12-30T02:53:05.214Z,12.73
2017-12-30T02:55:32.740Z,20.90
2017-12-30T02:58:00.283Z,21.90
2017-12-30T03:00:27.812Z,13.07
2017-12-30T03:02:55.375Z,16.57
2017-12-30T03:05:22.887Z,19.87
2017-12-30T03:07:50.407Z,18.17
2017-12-30T03:10:17.943Z,19.30
2017-12-30T03:12:45.455Z,19.80
2017-12-30T03:15:13.000Z,15.33
2017-12-30T03:17:41.280Z,15.97
2017-12-30T03:20:08.818Z,14.97
2017-12-30T03:22:36.331Z,13.70
2017-12-30T03:25:04.667Z,21.10
2017-12-30T03:27:32.176Z,16.57
2017-12-30T03:29:59.685Z,11.87
2017-12-30T03:32:27.226Z,23.77
2017-12-30T03:34:54.729Z,13.90
2017-12-30T03:37:22.278Z,16.13
2017-12-30T03:39:49.786Z,24.13
2017-12-30T03:42:17.324Z,21.33
2017-12-30T03:44:45.607Z,16.03
2017-12-30T03:47:13.932Z,16.17
2017-12-30T03:49:41.462Z,16.17
2017-12-30T03:52:09.023Z,23.30
2017-12-30T03:54:36.546Z,18.80
2017-12-30T03:57:04.069Z,20.20
2017-12-30T03:59:31.623Z,27.77
2017-12-30T04:01:59.132Z,22.10
2017-12-30T04:04:26.684Z,25.13
2017-12-30T04:06:54.192Z,20.07
2017-12-30T04:09:21.747Z,23.77
2017-12-30T04:11:50.015Z,14.20
2017-12-30T04:14:17.552Z,17.40
2017-12-30T04:16:45.064Z,17.53
2017-12-30T04:19:12.599Z,11.23
2017-12-30T04:21:40.879Z,10.10
2017-12-30T04:24:08.436Z,19.47
2017-12-30T04:26:36.000Z,15.83
2017-12-30T04:29:04.283Z,13.33
2017-12-30T04:31:32.604Z,26.60
2017-12-30T04:34:00.107Z,26.83
2017-12-30T04:36:27.656Z,15.97
2017-12-30T04:38:55.259Z,20.00
2017-12-30T04:41:22.813Z,22.83
2017-12-30T04:43:50.319Z,21.30
2017-12-30T04:46:17.859Z,17.13
2017-12-30T04:48:45.358Z,14.73
2017-12-30T04:51:12.922Z,18.00
2017-12-30T04:53:40.450Z,16.47
2017-12-30T04:56:07.958Z,19.20
2017-12-30T04:58:35.502Z,13.30
2017-12-30T05:01:03.824Z,12.93
2017-12-30T05:03:31.356Z,16.87
2017-12-30T05:05:58.863Z,12.90
2017-12-30T05:08:26.428Z,17.13
2017-12-30T05:10:53.943Z,21.17
2017-12-30T05:13:21.479Z,17.73
2017-12-30T05:15:48.982Z,14.90
2017-12-30T05:18:17.294Z,14.20
2017-12-30T05:20:44.794Z,26.10
2017-12-30T05:23:12.346Z,15.80
2017-12-30T05:25:39.867Z,22.10
2017-12-30T05:28:07.436Z,17.13
2017-12-30T05:30:34.951Z,18.40
2017-12-30T05:33:02.461Z,13.20
2017-12-30T05:35:30.007Z,13.90
2017-12-30T05:37:57.514Z,14.63
2017-12-30T05:40:25.057Z,13.13
2017-12-30T05:42:52.575Z,17.63
2017-12-30T05:45:20.123Z,20.33
2017-12-30T05:47:47.653Z,16.60
2017-12-30T05:50:15.205Z,16.80
2017-12-30T05:52:43.506Z,28.23
2017-12-30T05:55:11.840Z,13.07
2017-12-30T05:57:39.377Z,25.83
2017-12-30T06:00:06.939Z,22.43
2017-12-30T06:02:35.211Z,19.07
2017-12-30T06:05:02.720Z,23.87
2017-12-30T06:07:30.263Z,16.43
2017-12-30T06:09:58.534Z,14.53
2017-12-30T06:12:26.091Z,15.87
2017-12-30T06:14:53.591Z,26.37
2017-12-30T06:17:21.905Z,12.73
2017-12-30T06:19:49.418Z,27.27
2017-12-30T06:22:17.031Z,16.37
2017-12-30T06:24:44.520Z,15.70
2017-12-30T06:27:12.026Z,16.00
2017-12-30T06:29:39.571Z,14.43
2017-12-30T06:32:07.084Z,20.60
2017-12-30T06:34:34.626Z,21.33
2017-12-30T06:37:02.134Z,15.70
2017-12-30T06:39:29.689Z,21.23
2017-12-30T06:41:57.203Z,12.93
2017-12-30T06:44:25.533Z,11.60
2017-12-30T06:46:53.071Z,21.27
2017-12-30T06:49:21.347Z,30.80
2017-12-30T06:51:48.883Z,12.43
2017-12-30T06:54:16.387Z,12.53
2017-12-30T06:56:43.937Z,15.63
2017-12-30T06:59:11.441Z,16.10
2017-12-30T07:01:38.998Z,13.13
2017-12-30T07:04:06.528Z,19.77
2017-12-30T07:06:34.068Z,21.50
2017-12-30T07:09:02.339Z,11.73
2017-12-30T07:11:29.899Z,12.63
2017-12-30T07:13:57.404Z,12.77
2017-12-30T07:16:24.996Z,12.00
2017-12-30T07:18:52.546Z,12.53
2017-12-30T07:21:20.145Z,5.83
2017-12-30T07:23:47.706Z,19.23
2017-12-30T07:26:15.227Z,19.77
2017-12-30T07:28:42.770Z,20.00
2017-12-30T07:31:10.288Z,6.40
2017-12-30T07:33:37.870Z,8.87
2017-12-30T07:36:06.219Z,13.90
2017-12-30T07:38:33.927Z,10.70
2017-12-30T07:41:01.442Z,11.50
2017-12-30T07:43:28.959Z,21.10
2017-12-30T07:45:56.512Z,10.97
2017-12-30T07:48:24.022Z,8.70
2017-12-30T07:50:52.353Z,8.77
2017-12-30T07:53:19.862Z,10.83
2017-12-30T07:55:47.407Z,10.70
2017-12-30T07:58:14.919Z,13.90
2017-12-30T08:00:44.013Z,15.13
2017-12-30T08:03:19.861Z,16.67
2017-12-30T08:05:49.284Z,6.97
2017-12-30T08:08:16.803Z,13.17
2017-12-30T08:10:45.083Z,14.67
2017-12-30T08:13:13.443Z,14.30
2017-12-30T08:15:40.976Z,10.10
2017-12-30T08:18:08.528Z,9.67
2017-12-30T08:20:36.040Z,11.53
2017-12-30T08:23:03.591Z,8.43
2017-12-30T08:25:31.112Z,4.83
2017-12-30T08:27:58.677Z,16.30
2017-12-30T08:30:26.175Z,9.93
2017-12-30T08:32:54.145Z,7.20
2017-12-30T08:35:21.647Z,8.33
2017-12-30T08:37:49.159Z,6.90
2017-12-30T08:40:16.782Z,11.00
2017-12-30T08:42:44.328Z,10.43
2017-12-30T08:45:11.876Z,8.13
2017-12-30T08:47:39.387Z,4.63
2017-12-30T08:50:07.705Z,4.17
2017-12-30T08:52:35.261Z,6.70
2017-12-30T08:55:02.803Z,5.27
2017-12-30T08:57:30.308Z,7.53
2017-12-30T08:59:58.645Z,9.37
2017-12-30T09:02:26.211Z,4.80
2017-12-30T09:04:53.735Z,2.60
2017-12-30T09:07:21.287Z,4.67
2017-12-30T09:09:50.419Z,4.33
2017-12-30T09:12:18.724Z,3.03
2017-12-30T09:14:46.234Z,3.83
2017-12-30T09:17:13.832Z,7.17
2017-12-30T09:19:41.343Z,6.40
2017-12-30T09:22:08.931Z,5.33
2017-12-30T09:24:36.895Z,5.63
2017-12-30T09:27:04.399Z,5.37
2017-12-30T09:29:31.938Z,4.87
2017-12-30T09:31:59.452Z,3.33
2017-12-30T09:34:26.991Z,2.10
2017-12-30T09:36:55.279Z,2.03
2017-12-30T09:39:22.835Z,5.50
2017-12-30T09:41:50.459Z,2.37
2017-12-30T09:44:17.999Z,1.40
2017-12-30T09:46:45.536Z,1.63
2017-12-30T09:49:13.874Z,1.13
2017-12-30T09:51:41.422Z,1.73
2017-12-30T09:54:08.932Z,1.57
2017-12-30T09:56:36.533Z,0.60
2017-12-30T09:59:04.051Z,1.07
2017-12-30T10:01:31.613Z,0.40
2017-12-30T10:03:59.119Z,0.40
2017-12-30T10:06:26.670Z,0.60
2017-12-30T10:08:54.195Z,2.97
2017-12-30T10:11:21.742Z,0.50
2017-12-30T10:13:49.251Z,1.73
2017-12-30T10:16:17.541Z,0.50
2017-12-30T10:18:45.843Z,1.43
2017-12-30T10:21:13.352Z,0.93
2017-12-30T10:23:40.904Z,0.80
2017-12-30T10:26:08.426Z,1.07
2017-12-30T10:28:35.981Z,0.73
2017-12-30T10:31:03.496Z,0.40
2017-12-30T10:33:31.807Z,2.63
2017-12-30T10:35:59.361Z,0.70
2017-12-30T10:38:26.868Z,2.20
2017-12-30T10:40:54.415Z,1.17
2017-12-30T10:43:21.915Z,4.43
2017-12-30T10:45:49.452Z,4.20
2017-12-30T10:48:16.960Z,2.50
2017-12-30T10:50:44.511Z,0.93
2017-12-30T10:53:12.386Z,7.90
2017-12-30T10:55:39.915Z,5.40
2017-12-30T10:58:07.456Z,3.23
2017-12-30T11:00:40.703Z,4.90
2017-12-30T11:03:08.256Z,3.27
2017-12-30T11:05:35.783Z,4.63
2017-12-30T11:08:03.330Z,5.10
2017-12-30T11:10:31.613Z,5.20
2017-12-30T11:12:59.220Z,4.43
2017-12-30T11:15:26.737Z,4.80
2017-12-30T11:17:55.021Z,6.23
2017-12-30T11:20:23.174Z,7.30
2017-12-30T11:22:50.783Z,3.03
2017-12-30T11:25:18.294Z,11.80
2017-12-30T11:27:45.804Z,10.20
2017-12-30T11:30:13.348Z,4.33
2017-12-30T11:32:40.852Z,3.57
2017-12-30T11:35:08.399Z,13.10
2017-12-30T11:37:35.910Z,9.37
2017-12-30T11:40:03.454Z,19.13
2017-12-30T11:42:30.964Z,12.70
2017-12-30T11:44:58.532Z,16.97
2017-12-30T11:47:26.054Z,21.80
2017-12-30T11:49:53.604Z,28.83
2017-12-30T11:52:21.896Z,30.47
2017-12-30T11:54:50.202Z,36.33
2017-12-30T11:57:17.719Z,21.53
2017-12-30T11:59:45.274Z,28.57
2017-12-30T12:02:12.791Z,26.97
2017-12-30T12:04:41.072Z,29.87
2017-12-30T12:07:08.632Z,32.43
2017-12-30T12:09:36.207Z,39.00
2017-12-30T12:12:03.735Z,40.57
2017-12-30T12:14:31.240Z,44.93
2017-12-30T12:16:58.796Z,39.40
2017-12-30T12:19:26.319Z,34.00
2017-12-30T12:21:54.639Z,47.27
2017-12-30T12:24:22.194Z,50.40
2017-12-30T12:26:49.806Z,43.53
2017-12-30T12:29:17.967Z,33.83
2017-12-30T12:31:45.487Z,42.90
2017-12-30T12:34:13.043Z,61.37
2017-12-30T12:36:40.588Z,58.70
2017-12-30T12:39:08.135Z,51.83
2017-12-30T12:41:35.655Z,42.53
2017-12-30T12:44:03.220Z,55.97
2017-12-30T12:46:30.755Z,40.43
2017-12-30T12:48:59.071Z,58.03
2017-12-30T12:51:26.882Z,54.27
2017-12-30T12:53:54.460Z,54.60
2017-12-30T12:56:21.977Z,44.50
2017-12-30T12:58:49.487Z,45.37
2017-12-30T13:01:17.030Z,45.30
2017-12-30T13:03:44.559Z,57.63
2017-12-30T13:06:12.889Z,57.20
2017-12-30T13:08:40.442Z,58.43
2017-12-30T13:11:07.986Z,49.10
2017-12-30T13:13:35.548Z,54.40
2017-12-30T13:16:03.099Z,49.33
2017-12-30T13:18:30.607Z,46.37
2017-12-30T13:20:58.180Z,46.30
2017-12-30T13:23:25.703Z,49.27
2017-12-30T13:25:53.284Z,49.00
2017-12-30T13:28:20.841Z,49.93
2017-12-30T13:30:49.496Z,39.23
2017-12-30T13:33:17.820Z,39.83
2017-12-30T13:35:45.334Z,47.27
2017-12-30T13:38:12.886Z,50.10
2017-12-30T13:40:40.410Z,44.67
2017-12-30T13:43:08.724Z,41.70
2017-12-30T13:45:36.252Z,49.93
2017-12-30T13:48:03.806Z,37.00
2017-12-30T13:50:31.802Z,40.20
2017-12-30T13:52:59.317Z,46.97
2017-12-30T13:55:27.644Z,46.00
2017-12-30T13:57:55.171Z,51.63
2017-12-30T14:00:24.318Z,47.27
2017-12-30T14:02:52.237Z,43.80
2017-12-30T14:05:19.812Z,51.20
2017-12-30T14:07:47.329Z,59.37
2017-12-30T14:10:14.914Z,65.50
2017-12-30T14:12:42.460Z,34.50
2017-12-30T14:15:10.772Z,39.43
2017-12-30T14:17:38.304Z,44.27
2017-12-30T14:20:06.638Z,40.20
2017-12-30T14:22:34.195Z,61.63
2017-12-30T14:25:01.712Z,40.33
2017-12-30T14:27:29.254Z,39.40
2017-12-30T14:29:56.785Z,48.17
2017-12-30T14:32:26.048Z,47.90
2017-12-30T14:34:53.579Z,52.33
2017-12-30T14:37:21.894Z,49.47
2017-12-30T14:39:50.315Z,47.47
2017-12-30T14:42:17.902Z,56.47
2017-12-30T14:44:45.456Z,42.43
2017-12-30T14:47:12.975Z,42.60
2017-12-30T14:49:40.524Z,58.20
2017-12-30T14:52:08.055Z,46.73
2017-12-30T14:54:36.416Z,53.70
2017-12-30T14:57:04.704Z,42.40
2017-12-30T14:59:33.023Z,37.80
2017-12-30T15:02:00.540Z,43.53
2017-12-30T15:04:28.111Z,44.03
2017-12-30T15:06:55.629Z,33.93
2017-12-30T15:09:23.239Z,42.90
2017-12-30T15:11:50.779Z,52.03
2017-12-30T15:14:18.300Z,56.53
2017-12-30T15:16:45.868Z,54.40
2017-12-30T15:19:13.391Z,38.70
2017-12-30T15:21:40.936Z,46.10
2017-12-30T15:24:09.223Z,46.37
2017-12-30T15:26:36.776Z,36.70
2017-12-30T15:29:04.359Z,35.77
2017-12-30T15:31:34.428Z,49.30
2017-12-30T15:34:02.253Z,46.90
2017-12-30T15:36:29.824Z,54.73
2017-12-30T15:38:57.350Z,44.43
2017-12-30T15:41:24.883Z,48.43
2017-12-30T15:43:52.436Z,48.40
2017-12-30T15:46:19.951Z,48.60
2017-12-30T15:48:48.262Z,44.87
2017-12-30T15:51:15.791Z,53.77
2017-12-30T15:53:43.345Z,40.03
2017-12-30T15:56:10.864Z,39.63
2017-12-30T15:58:38.415Z,42.07
2017-12-30T16:01:05.936Z,43.20
2017-12-30T16:03:33.493Z,42.03
2017-12-30T16:06:01.031Z,41.10
2017-12-30T16:08:28.594Z,33.53
2017-12-30T16:10:56.108Z,43.80
2017-12-30T16:13:23.628Z,40.10
2017-12-30T16:15:51.192Z,39.80
2017-12-30T16:18:18.722Z,39.30
2017-12-30T16:20:46.373Z,38.30
2017-12-30T16:23:13.896Z,49.93
2017-12-30T16:25:41.448Z,40.40
2017-12-30T16:28:09.004Z,40.90
2017-12-30T16:30:36.831Z,29.53
2017-12-30T16:33:05.047Z,35.60
2017-12-30T16:35:32.616Z,29.07
2017-12-30T16:38:00.128Z,35.07
2017-12-30T16:40:27.651Z,34.83
2017-12-30T16:42:55.211Z,25.73
2017-12-30T16:45:22.732Z,32.17
2017-12-30T16:47:50.291Z,34.40
2017-12-30T16:50:17.887Z,39.73
2017-12-30T16:52:45.456Z,32.17
2017-12-30T16:55:13.840Z,39.88
2017-12-30T16:57:41.409Z,46.13
2017-12-30T17:00:08.923Z,46.67
2017-12-30T17:02:36.429Z,38.43
2017-12-30T17:05:03.984Z,34.23
2017-12-30T17:07:31.519Z,30.97
2017-12-30T17:09:59.074Z,25.37
2017-12-30T17:12:26.655Z,36.33
2017-12-30T17:14:54.215Z,31.17
2017-12-30T17:17:21.719Z,36.87
2017-12-30T17:19:49.267Z,27.57
2017-12-30T17:22:16.779Z,27.90
2017-12-30T17:24:44.444Z,41.50
2017-12-30T17:27:11.991Z,41.63
2017-12-30T17:29:39.516Z,27.50
2017-12-30T17:32:07.071Z,33.80
2017-12-30T17:34:34.584Z,30.50
2017-12-30T17:37:02.907Z,41.87
2017-12-30T17:39:30.439Z,34.20
2017-12-30T17:41:58.759Z,31.50
2017-12-30T17:44:26.283Z,39.27
2017-12-30T17:46:53.842Z,29.70
2017-12-30T17:49:21.354Z,25.97
2017-12-30T17:51:48.908Z,27.77
2017-12-30T17:54:17.196Z,21.70
2017-12-30T17:56:44.912Z,21.30
2017-12-30T17:59:12.435Z,31.93
2017-12-30T18:01:39.984Z,33.33
2017-12-30T18:04:07.535Z,23.93
2017-12-30T18:06:35.047Z,39.47
2017-12-30T18:09:02.631Z,26.57
2017-12-30T18:11:30.159Z,35.43
2017-12-30T18:13:57.719Z,22.17
2017-12-30T18:16:25.236Z,30.53
2017-12-30T18:18:52.788Z,27.97
2017-12-30T18:21:20.316Z,32.27
2017-12-30T18:23:48.658Z,22.48
2017-12-30T18:26:16.191Z,30.13
2017-12-30T18:28:43.751Z,23.60
2017-12-30T18:31:11.305Z,29.03
2017-12-30T18:33:38.816Z,19.27
2017-12-30T18:36:06.357Z,30.30
2017-12-30T18:38:33.885Z,24.50
2017-12-30T18:41:01.456Z,33.27
2017-12-30T18:43:29.003Z,28.27
2017-12-30T18:45:56.551Z,36.07
2017-12-30T18:48:24.082Z,30.40
2017-12-30T18:50:51.651Z,30.67
2017-12-30T18:53:19.181Z,28.23
2017-12-30T18:55:46.743Z,22.50
2017-12-30T18:58:15.067Z,18.97
2017-12-30T19:00:42.595Z,27.17
2017-12-30T19:03:10.920Z,28.37
2017-12-30T19:05:38.427Z,22.93
2017-12-30T19:08:05.970Z,27.37
2017-12-30T19:10:33.491Z,32.43
2017-12-30T19:13:01.044Z,28.47
2017-12-30T19:15:28.558Z,32.90
2017-12-30T19:17:56.902Z,29.37
2017-12-30T19:20:24.436Z,23.40
2017-12-30T19:22:51.996Z,23.67
2017-12-30T19:25:19.619Z,26.13
2017-12-30T19:27:47.967Z,35.53
2017-12-30T19:30:15.519Z,40.47
2017-12-30T19:32:43.807Z,34.37
2017-12-30T19:35:12.123Z,27.63
2017-12-30T19:37:39.631Z,28.97
2017-12-30T19:40:07.229Z,33.20
2017-12-30T19:42:34.747Z,24.60
2017-12-30T19:45:02.329Z,30.70
2017-12-30T19:47:29.899Z,35.87
2017-12-30T19:49:57.411Z,28.90
2017-12-30T19:52:24.962Z,28.80
2017-12-30T19:54:52.478Z,38.50
2017-12-30T19:57:20.803Z,30.23
2017-12-30T19:59:48.315Z,32.73
2017-12-30T20:02:15.859Z,40.93
2017-12-30T20:04:43.496Z,31.00
2017-12-30T20:07:11.076Z,21.77
2017-12-30T20:09:38.591Z,26.80
2017-12-30T20:12:06.164Z,36.00
2017-12-30T20:14:33.969Z,28.50
2017-12-30T20:17:01.483Z,36.20
2017-12-30T20:19:29.035Z,22.80
2017-12-30T20:21:57.316Z,31.40
2017-12-30T20:24:25.647Z,32.07
2017-12-30T20:26:53.157Z,27.73
2017-12-30T20:29:20.783Z,32.13
2017-12-30T20:31:48.294Z,35.40
2017-12-30T20:34:15.869Z,28.30
2017-12-30T20:36:43.401Z,35.50
2017-12-30T20:39:11.011Z,33.47
2017-12-30T20:41:38.600Z,26.80
2017-12-30T20:44:06.114Z,30.50
2017-12-30T20:46:33.874Z,38.43
2017-12-30T20:49:01.409Z,36.53
2017-12-30T20:51:28.973Z,38.97
2017-12-30T20:53:56.497Z,40.43
2017-12-30T20:56:24.126Z,35.17
2017-12-30T20:58:51.652Z,29.97
2017-12-30T21:01:19.208Z,36.73
2017-12-30T21:03:46.729Z,32.03
2017-12-30T21:06:14.288Z,48.00
2017-12-30T21:08:41.820Z,20.57
2017-12-30T21:11:09.360Z,24.97
2017-12-30T21:13:36.923Z,31.80
2017-12-30T21:16:04.513Z,31.73
2017-12-30T21:18:35.617Z,37.47
2017-12-30T21:21:03.217Z,23.97
2017-12-30T21:23:31.684Z,35.07
2017-12-30T21:25:59.389Z,37.97
2017-12-30T21:28:30.648Z,29.27
2017-12-30T21:30:58.283Z,29.47
2017-12-30T21:33:25.845Z,25.47
2017-12-30T21:35:54.191Z,17.83
2017-12-30T21:38:21.834Z,21.97
2017-12-30T21:40:49.458Z,39.43
2017-12-30T21:43:17.092Z,20.60
2017-12-30T21:45:44.643Z,18.90
2017-12-30T21:48:12.941Z,23.03
2017-12-30T21:50:40.559Z,18.17
2017-12-30T21:53:08.083Z,27.30
2017-12-30T21:55:35.647Z,30.97
2017-12-30T21:58:03.941Z,18.30
2017-12-30T22:00:31.520Z,19.07
2017-12-30T22:02:59.099Z,22.73
2017-12-30T22:05:26.671Z,28.33
2017-12-30T22:07:54.247Z,17.83
2017-12-30T22:10:21.838Z,34.27
2017-12-30T22:12:49.456Z,15.00
2017-12-30T22:15:16.988Z,25.50
2017-12-30T22:17:44.578Z,23.47
2017-12-30T22:20:12.127Z,22.63
2017-12-30T22:22:39.695Z,23.97
2017-12-30T22:25:07.218Z,19.37
2017-12-30T22:27:35.503Z,19.63
2017-12-30T22:30:03.107Z,30.07
2017-12-30T22:32:30.578Z,18.97
2017-12-30T22:34:58.901Z,20.80
2017-12-30T22:37:26.415Z,20.77
2017-12-30T22:39:53.994Z,17.23
2017-12-30T22:42:22.318Z,18.77
2017-12-30T22:44:49.875Z,24.37
2017-12-30T22:47:17.399Z,30.50
2017-12-30T22:49:44.948Z,25.83
2017-12-30T22:52:12.516Z,25.40
2017-12-30T22:54:40.031Z,17.33
2017-12-30T22:57:07.594Z,23.30
2017-12-30T22:59:35.111Z,20.40
2017-12-30T23:02:02.659Z,17.10
2017-12-30T23:04:30.983Z,18.90
2017-12-30T23:06:58.534Z,20.50
2017-12-30T23:09:26.051Z,20.97
2017-12-30T23:11:53.630Z,27.80
2017-12-30T23:14:21.151Z,15.00
2017-12-30T23:16:48.729Z,21.23
2017-12-30T23:19:16.274Z,19.67
2017-12-30T23:21:43.892Z,18.20
2017-12-30T23:24:11.447Z,18.63
2017-12-30T23:26:39.769Z,29.47
2017-12-30T23:29:07.337Z,30.00
2017-12-30T23:31:34.884Z,25.43
2017-12-30T23:34:02.431Z,26.10
2017-12-30T23:36:29.939Z,18.47
2017-12-30T23:38:57.509Z,19.53
2017-12-30T23:41:25.027Z,21.17
2017-12-30T23:43:52.584Z,20.13
2017-12-30T23:46:20.100Z,20.50
2017-12-30T23:48:47.669Z,16.53
2017-12-30T23:51:15.951Z,18.23
2017-12-30T23:53:43.494Z,14.87
2017-12-30T23:56:11.049Z,25.10
2017-12-30T23:58:38.627Z,21.57
